createdAt,value
2023-04-29T00:01:14.365Z,100565.31
2023-04-29T00:03:42.687Z,100576.19
2023-04-29T00:06:12.066Z,100571.31
2023-04-29T00:08:40.082Z,100575.59
2023-04-29T00:11:07.873Z,100572.38
2023-04-29T00:13:36.183Z,100572.81
2023-04-29T00:16:04.012Z,100577.44
2023-04-29T00:18:33.882Z,100578.50
2023-04-29T00:21:02.877Z,100577.69
2023-04-29T00:23:30.624Z,100580.78
2023-04-29T00:25:58.408Z,100581.47
2023-04-29T00:28:26.858Z,100586.81
2023-04-29T00:30:55.791Z,100588.91
2023-04-29T00:33:23.611Z,100595.09
2023-04-29T00:35:53.492Z,100588.97
2023-04-29T00:38:21.402Z,100603.81
2023-04-29T00:40:49.559Z,100596.03
2023-04-29T00:43:17.826Z,100599.38
2023-04-29T00:45:46.988Z,100606.78
2023-04-29T00:48:15.855Z,100609.31
2023-04-29T00:50:44.538Z,100610.13
2023-04-29T00:53:14.715Z,100607.31
2023-04-29T00:55:45.566Z,100605.06
2023-04-29T00:58:13.550Z,100607.59
2023-04-29T01:00:44.193Z,100608.63
2023-04-29T01:03:12.798Z,100610.91
2023-04-29T01:05:40.923Z,100613.00
2023-04-29T01:08:27.612Z,100618.34
2023-04-29T01:11:02.752Z,100614.28
2023-04-29T01:13:33.394Z,100618.56
2023-04-29T01:16:04.742Z,100618.78
2023-04-29T01:21:26.520Z,100620.47
2023-04-29T01:23:57.740Z,100629.66
2023-04-29T01:26:26.955Z,100624.31
2023-04-29T01:29:03.070Z,100626.56
2023-04-29T01:31:37.757Z,100630.84
2023-04-29T01:34:11.861Z,100622.28
2023-04-29T01:36:54.293Z,100632.91
2023-04-29T01:39:35.288Z,100621.91
2023-04-29T01:42:16.816Z,100636.00
2023-04-29T01:44:46.019Z,100633.78
2023-04-29T01:47:16.071Z,100638.91
2023-04-29T01:49:47.263Z,100646.06
2023-04-29T01:52:15.050Z,100640.00
2023-04-29T01:54:44.313Z,100644.53
2023-04-29T01:57:12.880Z,100645.56
2023-04-29T01:59:40.802Z,100642.91
2023-04-29T02:02:08.731Z,100640.28
2023-04-29T02:04:37.189Z,100645.63
2023-04-29T02:07:05.092Z,100643.66
2023-04-29T02:09:32.958Z,100650.78
2023-04-29T02:12:05.166Z,100651.25
2023-04-29T02:14:35.599Z,100650.63
2023-04-29T02:17:05.882Z,100650.88
2023-04-29T02:19:33.663Z,100647.03
2023-04-29T02:22:01.473Z,100646.81
2023-04-29T02:24:29.584Z,100654.56
2023-04-29T02:26:57.349Z,100659.09
2023-04-29T02:29:30.067Z,100662.41
2023-04-29T02:31:57.844Z,100662.47
2023-04-29T02:34:25.639Z,100667.78
2023-04-29T02:36:53.594Z,100674.97
2023-04-29T02:39:21.619Z,100679.03
2023-04-29T02:41:49.396Z,100671.06
2023-04-29T02:44:17.935Z,100681.69
2023-04-29T02:46:47.159Z,100688.28
2023-04-29T02:49:14.989Z,100687.28
2023-04-29T02:51:43.229Z,100682.81
2023-04-29T02:54:11.375Z,100684.94
2023-04-29T02:56:39.135Z,100686.97
2023-04-29T02:59:07.386Z,100687.78
2023-04-29T03:01:35.209Z,100690.09
2023-04-29T03:04:04.730Z,100686.78
2023-04-29T03:06:32.828Z,100686.97
2023-04-29T03:09:00.679Z,100686.59
2023-04-29T03:11:28.982Z,100690.25
2023-04-29T03:13:57.898Z,100695.81
2023-04-29T03:16:25.938Z,100699.72
2023-04-29T03:18:53.771Z,100696.88
2023-04-29T03:21:23.354Z,100703.88
2023-04-29T03:23:51.104Z,100704.69
2023-04-29T03:26:18.917Z,100700.63
2023-04-29T03:28:47.710Z,100698.56
2023-04-29T03:31:16.626Z,100704.75
2023-04-29T03:33:44.724Z,100704.31
2023-04-29T03:36:13.814Z,100715.78
2023-04-29T03:38:43.015Z,100708.69
2023-04-29T03:41:10.896Z,100710.13
2023-04-29T03:43:39.375Z,100710.53
2023-04-29T03:46:07.550Z,100714.44
2023-04-29T03:48:35.368Z,100712.97
2023-04-29T03:51:03.830Z,100705.63
2023-04-29T03:53:32.842Z,100714.00
2023-04-29T03:56:02.024Z,100720.28
2023-04-29T03:58:30.277Z,100715.38
2023-04-29T04:00:58.087Z,100723.94
2023-04-29T04:03:27.760Z,100722.47
2023-04-29T04:05:56.111Z,100727.78
2023-04-29T04:08:24.175Z,100737.47
2023-04-29T04:10:52.001Z,100743.16
2023-04-29T04:13:21.788Z,100746.44
2023-04-29T04:15:51.868Z,100742.41
2023-04-29T04:18:19.654Z,100750.75
2023-04-29T04:20:48.078Z,100750.78
2023-04-29T04:23:15.957Z,100751.00
2023-04-29T04:25:47.478Z,100760.00
2023-04-29T04:28:16.415Z,100754.28
2023-04-29T04:30:47.958Z,100769.38
2023-04-29T04:33:16.520Z,100774.28
2023-04-29T04:35:44.482Z,100775.91
2023-04-29T04:38:12.532Z,100779.16
2023-04-29T04:40:42.554Z,100777.50
2023-04-29T04:43:10.534Z,100783.84
2023-04-29T04:45:38.390Z,100784.25
2023-04-29T04:48:08.881Z,100789.75
2023-04-29T04:50:36.701Z,100788.50
2023-04-29T04:53:04.481Z,100787.91
2023-04-29T04:55:34.069Z,100790.16
2023-04-29T04:58:01.860Z,100800.38
2023-04-29T05:00:29.641Z,100797.72
2023-04-29T05:02:58.517Z,100804.88
2023-04-29T05:05:27.992Z,100810.59
2023-04-29T05:07:55.815Z,100802.44
2023-04-29T05:10:27.003Z,100804.94
2023-04-29T05:12:54.757Z,100808.66
2023-04-29T05:15:22.510Z,100807.41
2023-04-29T05:17:51.020Z,100806.59
2023-04-29T05:20:20.387Z,100809.47
2023-04-29T05:22:49.554Z,100815.00
2023-04-29T05:25:18.046Z,100815.63
2023-04-29T05:27:45.840Z,100831.16
2023-04-29T05:30:14.079Z,100820.75
2023-04-29T05:32:42.395Z,100827.09
2023-04-29T05:35:10.649Z,100823.84
2023-04-29T05:37:38.456Z,100817.31
2023-04-29T05:40:09.410Z,100825.06
2023-04-29T05:42:37.434Z,100834.44
2023-04-29T05:45:06.061Z,100833.25
2023-04-29T05:47:35.121Z,100832.44
2023-04-29T05:50:03.928Z,100835.69
2023-04-29T05:52:31.792Z,100831.97
2023-04-29T05:54:59.793Z,100837.91
2023-04-29T05:57:28.913Z,100851.34
2023-04-29T05:59:57.507Z,100853.78
2023-04-29T06:02:25.910Z,100854.34
2023-04-29T06:04:54.039Z,100860.69
2023-04-29T06:07:22.534Z,100860.84
2023-04-29T06:09:50.964Z,100866.94
2023-04-29T06:12:18.908Z,100862.03
2023-04-29T06:14:48.009Z,100873.47
2023-04-29T06:17:16.300Z,100877.38
2023-04-29T06:19:44.056Z,100880.63
2023-04-29T06:22:13.381Z,100882.06
2023-04-29T06:24:41.600Z,100889.84
2023-04-29T06:27:09.385Z,100890.72
2023-04-29T06:29:37.457Z,100888.25
2023-04-29T06:32:07.304Z,100894.22
2023-04-29T06:34:36.070Z,100906.69
2023-04-29T06:37:04.698Z,100899.34
2023-04-29T06:39:32.457Z,100901.41
2023-04-29T06:42:00.234Z,100905.50
2023-04-29T06:44:27.965Z,100908.56
2023-04-29T06:46:56.212Z,100911.22
2023-04-29T06:49:25.368Z,100921.03
2023-04-29T06:51:54.511Z,100921.88
2023-04-29T06:54:22.904Z,100928.16
2023-04-29T06:56:50.960Z,100932.06
2023-04-29T06:59:18.717Z,100920.63
2023-04-29T07:01:49.004Z,100928.38
2023-04-29T07:04:17.491Z,100934.09
2023-04-29T07:06:47.167Z,100937.34
2023-04-29T07:09:15.316Z,100949.59
2023-04-29T07:11:43.464Z,100948.41
2023-04-29T07:14:11.759Z,100949.81
2023-04-29T07:16:39.493Z,100956.34
2023-04-29T07:19:07.618Z,100954.50
2023-04-29T07:21:36.377Z,100956.16
2023-04-29T07:24:06.551Z,100952.47
2023-04-29T07:26:34.265Z,100963.09
2023-04-29T07:29:02.184Z,100972.47
2023-04-29T07:31:30.269Z,100970.25
2023-04-29T07:33:59.532Z,100968.59
2023-04-29T07:36:28.498Z,100961.44
2023-04-29T07:38:56.505Z,100971.25
2023-04-29T07:41:25.589Z,100963.72
2023-04-29T07:43:53.487Z,100958.81
2023-04-29T07:46:21.212Z,100970.44
2023-04-29T07:48:48.967Z,100972.50
2023-04-29T07:51:17.001Z,100976.16
2023-04-29T07:53:44.765Z,100968.78
2023-04-29T07:56:12.783Z,100979.03
2023-04-29T07:58:42.239Z,100974.72
2023-04-29T08:01:11.806Z,100972.50
2023-04-29T08:03:41.593Z,100981.03
2023-04-29T08:06:10.330Z,100971.84
2023-04-29T08:08:38.299Z,100986.53
2023-04-29T08:11:06.794Z,100983.28
2023-04-29T08:13:34.835Z,100990.22
2023-04-29T08:16:04.042Z,100989.59
2023-04-29T08:18:31.852Z,100982.03
2023-04-29T08:20:59.657Z,100990.22
2023-04-29T08:23:27.458Z,100984.72
2023-04-29T08:25:55.938Z,100990.22
2023-04-29T08:28:24.101Z,100982.66
2023-04-29T08:30:51.980Z,100994.47
2023-04-29T08:33:21.245Z,100999.97
2023-04-29T08:35:49.759Z,100999.41
2023-04-29T08:38:17.536Z,101003.50
2023-04-29T08:40:46.536Z,101002.66
2023-04-29T08:43:16.070Z,101005.50
2023-04-29T08:45:44.394Z,101012.22
2023-04-29T08:48:12.622Z,101010.78
2023-04-29T08:50:43.353Z,101018.94
2023-04-29T08:53:12.638Z,101009.75
2023-04-29T08:55:43.431Z,101012.81
2023-04-29T08:58:12.469Z,101013.19
2023-04-29T09:00:41.671Z,101023.19
2023-04-29T09:03:21.089Z,101023.41
2023-04-29T09:05:54.998Z,101021.38
2023-04-29T09:08:24.050Z,101021.38
2023-04-29T09:10:52.766Z,101024.25
2023-04-29T09:13:27.954Z,101029.13
2023-04-29T09:15:56.128Z,101021.78
2023-04-29T09:18:43.399Z,101029.94
2023-04-29T09:21:19.628Z,101028.94
2023-04-29T09:23:50.398Z,101047.16
2023-04-29T09:26:18.493Z,101048.38
2023-04-29T09:28:47.719Z,101044.13
2023-04-29T09:31:16.144Z,101046.56
2023-04-29T09:33:54.516Z,101049.63
2023-04-29T09:36:42.115Z,101059.00
2023-04-29T09:39:12.665Z,101058.59
2023-04-29T09:41:59.242Z,101055.91
2023-04-29T09:44:31.291Z,101056.91
2023-04-29T09:47:03.412Z,101050.78
2023-04-29T09:49:35.612Z,101057.69
2023-04-29T09:52:06.600Z,101059.50
2023-04-29T09:54:36.811Z,101056.44
2023-04-29T09:57:06.395Z,101044.53
2023-04-29T09:59:36.181Z,101053.91
2023-04-29T10:02:09.333Z,101056.78
2023-04-29T10:04:41.834Z,101057.56
2023-04-29T10:07:15.938Z,101056.75
2023-04-29T10:09:46.504Z,101048.94
2023-04-29T10:12:17.827Z,101051.78
2023-04-29T10:14:51.933Z,101041.94
2023-04-29T10:17:26.593Z,101042.69
2023-04-29T10:19:59.707Z,101045.13
2023-04-29T10:22:36.922Z,101052.25
2023-04-29T10:25:08.479Z,101054.66
2023-04-29T10:27:38.848Z,101050.31
2023-04-29T10:30:11.356Z,101057.22
2023-04-29T10:32:50.604Z,101059.63
2023-04-29T10:35:20.458Z,101056.38
2023-04-29T10:37:50.439Z,101060.38
2023-04-29T10:40:23.182Z,101049.72
2023-04-29T10:42:53.307Z,101061.34
2023-04-29T10:45:26.848Z,101066.91
2023-04-29T10:48:15.537Z,101059.13
2023-04-29T10:51:03.396Z,101064.69
2023-04-29T10:53:33.148Z,101069.41
2023-04-29T10:56:08.975Z,101074.31
2023-04-29T10:58:45.631Z,101064.69
2023-04-29T11:01:15.343Z,101070.22
2023-04-29T11:03:59.255Z,101072.22
2023-04-29T11:06:39.721Z,101076.31
2023-04-29T11:09:13.145Z,101082.00
2023-04-29T11:11:49.760Z,101084.16
2023-04-29T11:14:23.710Z,101082.72
2023-04-29T11:16:54.233Z,101081.25
2023-04-29T11:19:22.068Z,101085.00
2023-04-29T11:21:50.436Z,101084.34
2023-04-29T11:24:19.835Z,101082.56
2023-04-29T11:26:48.911Z,101087.47
2023-04-29T11:29:19.936Z,101083.34
2023-04-29T11:31:47.796Z,101081.66
2023-04-29T11:34:15.806Z,101089.81
2023-04-29T11:36:45.818Z,101081.97
2023-04-29T11:39:17.967Z,101076.59
2023-04-29T11:41:47.809Z,101080.44
2023-04-29T11:44:15.568Z,101082.88
2023-04-29T11:46:43.413Z,101083.28
2023-04-29T11:49:11.797Z,101080.53
2023-04-29T11:51:39.628Z,101077.63
2023-04-29T11:54:08.698Z,101077.13
2023-04-29T11:56:39.540Z,101075.00
2023-04-29T11:59:09.022Z,101069.63
2023-04-29T12:01:37.249Z,101065.84
2023-04-29T12:04:07.752Z,101071.56
2023-04-29T12:06:35.660Z,101079.84
2023-04-29T12:09:04.663Z,101062.22
2023-04-29T12:11:32.677Z,101067.56
2023-04-29T12:14:02.565Z,101069.56
2023-04-29T12:16:32.788Z,101070.91
2023-04-29T12:19:01.191Z,101066.16
2023-04-29T12:21:29.779Z,101076.53
2023-04-29T12:24:01.175Z,101077.25
2023-04-29T12:26:30.214Z,101073.69
2023-04-29T12:28:59.202Z,101069.09
2023-04-29T12:31:37.143Z,101073.09
2023-04-29T12:34:09.165Z,101065.78
2023-04-29T12:36:38.225Z,101067.94
2023-04-29T12:39:09.506Z,101064.91
2023-04-29T12:41:39.257Z,101065.28
2023-04-29T12:44:07.928Z,101059.78
2023-04-29T12:46:38.188Z,101067.53
2023-04-29T12:49:09.512Z,101075.75
2023-04-29T12:51:37.735Z,101074.78
2023-04-29T12:54:07.296Z,101075.00
2023-04-29T12:56:35.639Z,101075.97
2023-04-29T12:59:08.414Z,101073.66
2023-04-29T13:01:38.288Z,101072.72
2023-04-29T13:04:09.012Z,101074.09
2023-04-29T13:06:40.063Z,101081.97
2023-04-29T13:09:17.865Z,101081.63
2023-04-29T13:11:47.259Z,101080.13
2023-04-29T13:14:15.626Z,101081.31
2023-04-29T13:16:45.211Z,101085.41
2023-04-29T13:19:30.468Z,101083.06
2023-04-29T13:22:01.595Z,101082.88
2023-04-29T13:24:30.034Z,101085.66
2023-04-29T13:26:58.182Z,101079.41
2023-04-29T13:29:25.977Z,101083.03
2023-04-29T13:31:55.662Z,101088.50
2023-04-29T13:34:23.549Z,101083.31
2023-04-29T13:36:51.333Z,101085.88
2023-04-29T13:39:20.382Z,101078.69
2023-04-29T13:41:48.329Z,101082.63
2023-04-29T13:44:27.243Z,101087.16
2023-04-29T13:47:02.773Z,101084.25
2023-04-29T13:52:50.569Z,101091.84
2023-04-29T13:55:25.895Z,101083.03
2023-04-29T13:58:36.379Z,101091.38
2023-04-29T14:05:33.363Z,101091.63
2023-04-29T14:08:02.034Z,101095.81
2023-04-29T14:10:29.856Z,101084.22
2023-04-29T14:12:57.628Z,101094.81
2023-04-29T14:15:25.977Z,101087.69
2023-04-29T14:17:55.164Z,101095.22
2023-04-29T14:20:24.497Z,101095.34
2023-04-29T14:22:55.009Z,101089.31
2023-04-29T14:25:22.756Z,101090.81
2023-04-29T14:27:50.538Z,101090.75
2023-04-29T14:30:18.817Z,101089.09
2023-04-29T14:32:47.381Z,101098.06
2023-04-29T14:35:15.281Z,101090.63
2023-04-29T14:37:44.861Z,101099.22
2023-04-29T14:40:12.625Z,101102.00
2023-04-29T14:42:40.452Z,101098.31
2023-04-29T14:45:09.349Z,101097.72
2023-04-29T14:47:37.220Z,101108.66
2023-04-29T14:50:05.630Z,101110.28
2023-04-29T14:52:33.871Z,101113.75
2023-04-29T14:55:03.044Z,101116.91
2023-04-29T14:57:30.901Z,101115.25
2023-04-29T14:59:58.720Z,101111.56
2023-04-29T15:02:26.734Z,101110.75
2023-04-29T15:04:54.830Z,101108.66
2023-04-29T15:07:23.596Z,101111.31
2023-04-29T15:09:51.581Z,101109.03
2023-04-29T15:12:22.212Z,101109.34
2023-04-29T15:14:50.890Z,101105.66
2023-04-29T15:17:18.750Z,101106.81
2023-04-29T15:19:46.880Z,101107.16
2023-04-29T15:22:15.201Z,101102.19
2023-04-29T15:24:42.994Z,101101.69
2023-04-29T15:27:11.095Z,101097.88
2023-04-29T15:29:42.136Z,101107.78
2023-04-29T15:32:10.636Z,101101.38
2023-04-29T15:34:38.602Z,101103.00
2023-04-29T15:37:07.305Z,101098.44
2023-04-29T15:39:35.097Z,101110.09
2023-04-29T15:42:03.810Z,101102.88
2023-04-29T15:44:32.188Z,101102.88
2023-04-29T15:47:01.388Z,101109.84
2023-04-29T15:49:29.226Z,101108.22
2023-04-29T15:51:57.435Z,101111.13
2023-04-29T15:54:25.207Z,101100.00
2023-04-29T15:56:53.249Z,101103.47
2023-04-29T15:59:21.523Z,101108.56
2023-04-29T16:01:49.436Z,101111.63
2023-04-29T16:04:18.758Z,101102.53
2023-04-29T16:06:47.486Z,101106.59
2023-04-29T16:09:15.451Z,101104.28
2023-04-29T16:11:43.557Z,101098.47
2023-04-29T16:14:11.976Z,101097.31
2023-04-29T16:16:39.806Z,101099.75
2023-04-29T16:19:07.782Z,101099.75
2023-04-29T16:21:36.954Z,101103.81
2023-04-29T16:24:05.641Z,101103.81
2023-04-29T16:26:33.793Z,101104.41
2023-04-29T16:29:01.778Z,101099.63
2023-04-29T16:31:29.585Z,101099.63
2023-04-29T16:33:58.090Z,101099.41
2023-04-29T16:36:26.484Z,101104.16
2023-04-29T16:38:55.718Z,101096.72
2023-04-29T16:41:24.059Z,101091.03
2023-04-29T16:43:52.065Z,101099.41
2023-04-29T16:46:20.043Z,101096.63
2023-04-29T16:48:50.837Z,101100.09
2023-04-29T16:51:18.924Z,101096.38
2023-04-29T16:53:46.746Z,101098.81
2023-04-29T16:56:16.244Z,101104.75
2023-04-29T16:58:44.463Z,101101.16
2023-04-29T17:01:12.457Z,101102.28
2023-04-29T17:03:40.544Z,101099.63
2023-04-29T17:06:08.647Z,101099.03
2023-04-29T17:08:36.683Z,101088.09
2023-04-29T17:11:06.240Z,101088.22
2023-04-29T17:13:35.454Z,101096.00
2023-04-29T17:16:03.276Z,101091.84
2023-04-29T17:18:31.136Z,101108.56
2023-04-29T17:20:59.022Z,101103.81
2023-04-29T17:23:26.794Z,101106.22
2023-04-29T17:25:56.374Z,101101.25
2023-04-29T17:28:24.594Z,101095.91
2023-04-29T17:30:55.843Z,101097.53
2023-04-29T17:33:32.518Z,101097.19
2023-04-29T17:36:01.346Z,101095.28
2023-04-29T17:38:29.396Z,101093.56
2023-04-29T17:40:57.220Z,101090.69
2023-04-29T17:43:25.174Z,101097.63
2023-04-29T17:45:54.667Z,101093.47
2023-04-29T17:48:22.774Z,101094.41
2023-04-29T17:50:50.616Z,101089.63
2023-04-29T17:53:18.644Z,101096.59
2023-04-29T17:55:47.111Z,101083.69
2023-04-29T17:58:14.940Z,101092.28
2023-04-29T18:00:42.901Z,101100.31
2023-04-29T18:03:12.385Z,101097.06
2023-04-29T18:05:40.247Z,101102.66
2023-04-29T18:08:08.125Z,101106.16
2023-04-29T18:10:36.309Z,101110.31
2023-04-29T18:13:04.457Z,101104.97
2023-04-29T18:15:32.283Z,101110.31
2023-04-29T18:18:00.168Z,101108.09
2023-04-29T18:20:29.410Z,101107.88
2023-04-29T18:22:57.209Z,101113.22
2023-04-29T18:25:25.039Z,101116.59
2023-04-29T18:27:59.805Z,101119.28
2023-04-29T18:30:36.978Z,101118.44
2023-04-29T18:33:04.942Z,101123.78
2023-04-29T18:35:34.908Z,101123.56
2023-04-29T18:38:02.715Z,101116.59
2023-04-29T18:40:30.738Z,101122.97
2023-04-29T18:42:58.555Z,101117.63
2023-04-29T18:45:26.505Z,101122.75
2023-04-29T18:47:54.378Z,101120.09
2023-04-29T18:50:22.197Z,101128.91
2023-04-29T18:52:52.194Z,101126.00
2023-04-29T18:55:20.262Z,101130.78
2023-04-29T18:57:48.363Z,101128.91
2023-04-29T19:00:16.346Z,101134.25
2023-04-29T19:02:44.177Z,101138.44
2023-04-29T19:05:12.902Z,101138.88
2023-04-29T19:07:41.481Z,101134.00
2023-04-29T19:10:11.307Z,101138.41
2023-04-29T19:12:39.058Z,101136.31
2023-04-29T19:15:09.189Z,101146.84
2023-04-29T19:17:37.065Z,101147.97
2023-04-29T19:20:05.512Z,101154.00
2023-04-29T19:22:33.508Z,101160.09
2023-04-29T19:25:01.264Z,101161.56
2023-04-29T19:27:30.517Z,101164.34
2023-04-29T19:29:58.294Z,101165.59
2023-04-29T19:32:27.622Z,101163.59
2023-04-29T19:34:56.625Z,101165.53
2023-04-29T19:37:24.599Z,101174.22
2023-04-29T19:39:52.812Z,101171.41
2023-04-29T19:42:20.740Z,101176.16
2023-04-29T19:44:50.078Z,101174.97
2023-04-29T19:47:17.849Z,101170.53
2023-04-29T19:49:45.597Z,101173.63
2023-04-29T19:52:13.824Z,101175.09
2023-04-29T19:54:41.787Z,101178.81
2023-04-29T19:57:09.587Z,101177.44
2023-04-29T19:59:37.530Z,101183.19
2023-04-29T20:02:06.979Z,101188.75
2023-04-29T20:04:34.831Z,101188.16
2023-04-29T20:07:02.806Z,101192.09
2023-04-29T20:09:30.864Z,101202.75
2023-04-29T20:11:58.644Z,101200.28
2023-04-29T20:14:26.970Z,101198.91
2023-04-29T20:16:55.119Z,101202.81
2023-04-29T20:19:24.416Z,101198.34
2023-04-29T20:21:52.204Z,101197.53
2023-04-29T20:24:20.006Z,101200.88
2023-04-29T20:26:47.785Z,101199.47
2023-04-29T20:29:15.616Z,101201.75
2023-04-29T20:31:43.832Z,101196.84
2023-04-29T20:34:12.315Z,101199.72
2023-04-29T20:36:41.750Z,101198.09
2023-04-29T20:39:10.079Z,101195.03
2023-04-29T20:41:37.946Z,101194.63
2023-04-29T20:44:05.821Z,101202.03
2023-04-29T20:46:33.710Z,101201.66
2023-04-29T20:49:02.440Z,101200.25
2023-04-29T20:51:32.679Z,101207.63
2023-04-29T20:54:01.828Z,101201.50
2023-04-29T20:56:29.615Z,101208.28
2023-04-29T20:58:59.013Z,101205.25
2023-04-29T21:01:26.895Z,101205.69
2023-04-29T21:03:54.756Z,101208.56
2023-04-29T21:06:22.809Z,101209.00
2023-04-29T21:08:50.702Z,101211.06
2023-04-29T21:11:20.023Z,101212.91
2023-04-29T21:13:50.400Z,101209.84
2023-04-29T21:16:18.779Z,101216.22
2023-04-29T21:18:46.984Z,101215.59
2023-04-29T21:21:15.042Z,101222.19
2023-04-29T21:23:44.466Z,101215.25
2023-04-29T21:26:14.896Z,101217.72
2023-04-29T21:28:44.526Z,101220.41
2023-04-29T21:31:16.211Z,101221.81
2023-04-29T21:33:44.813Z,101222.25
2023-04-29T21:36:13.145Z,101222.66
2023-04-29T21:38:43.162Z,101220.63
2023-04-29T21:41:22.633Z,101234.19
2023-04-29T21:43:52.381Z,101234.00
2023-04-29T21:46:20.717Z,101228.22
2023-04-29T21:48:48.912Z,101235.03
2023-04-29T21:51:19.172Z,101233.00
2023-04-29T21:53:47.039Z,101236.31
2023-04-29T21:56:15.133Z,101240.44
2023-04-29T21:58:43.879Z,101240.84
2023-04-29T22:01:27.161Z,101241.28
2023-04-29T22:03:56.158Z,101242.50
2023-04-29T22:06:24.960Z,101247.25
2023-04-29T22:08:52.846Z,101239.66
2023-04-29T22:11:21.748Z,101245.44
2023-04-29T22:13:49.836Z,101248.28
2023-04-29T22:16:19.771Z,101248.72
2023-04-29T22:18:48.476Z,101251.78
2023-04-29T22:21:16.646Z,101254.84
2023-04-29T22:23:44.846Z,101255.28
2023-04-29T22:26:12.620Z,101250.56
2023-04-29T22:28:40.726Z,101252.81
2023-04-29T22:31:08.528Z,101252.41
2023-04-29T22:33:38.030Z,101251.22
2023-04-29T22:36:06.052Z,101255.31
2023-04-29T22:38:34.902Z,101253.88
2023-04-29T22:41:03.008Z,101263.09
2023-04-29T22:43:30.769Z,101253.69
2023-04-29T22:45:58.591Z,101259.44
2023-04-29T22:48:27.725Z,101259.84
2023-04-29T22:51:00.138Z,101249.22
2023-04-29T22:53:28.351Z,101260.69
2023-04-29T22:55:58.988Z,101261.06
2023-04-29T22:58:27.486Z,101268.69
2023-04-29T23:00:58.615Z,101270.72
2023-04-29T23:03:27.484Z,101278.28
2023-04-29T23:06:00.392Z,101274.63
2023-04-29T23:08:28.343Z,101266.44
2023-04-29T23:10:56.150Z,101273.19
2023-04-29T23:13:24.034Z,101272.75
2023-04-29T23:15:52.448Z,101269.69
2023-04-29T23:18:20.269Z,101270.13
2023-04-29T23:20:48.677Z,101268.66
2023-04-29T23:23:18.569Z,101268.88
2023-04-29T23:25:46.740Z,101265.81
2023-04-29T23:28:14.602Z,101272.38
2023-04-29T23:30:43.367Z,101275.41
2023-04-29T23:33:11.151Z,101272.16
2023-04-29T23:35:38.899Z,101282.16
2023-04-29T23:38:06.736Z,101277.25
2023-04-29T23:40:36.208Z,101277.44
2023-04-29T23:43:04.021Z,101282.38
2023-04-29T23:45:32.151Z,101284.41
2023-04-29T23:47:59.967Z,101278.69
2023-04-29T23:50:27.824Z,101280.91
2023-04-29T23:52:55.635Z,101281.94
2023-04-29T23:55:23.429Z,101292.16
2023-04-29T23:57:52.578Z,101288.88
